Dixie, WV (25059)

7:06 AM EST on December 05, 2016 (GMT -0500)
KWVGLENF2 | | Change Station

Elev 676 ft 38.15 °N, 81.22 °W | Updated 6 minutes ago

Overcast
Overcast
45.2 °F
Feels Like 45 °F
N
1.0
Wind Variable Wind from South
Gusts 2.0 mph

Today
High -- | Low -- °F
--% Chance of Precip.
Yesterday
High -- | Low -- °F
Precip. -- in
Pressure 30.06 in
Visibility 10.0 miles
Clouds Overcast 3500 ft
Windchill 45 °F
Dew Point 44 °F
Humidity 96%
Rainfall 0.02 in
Snow Depth Not available.
7:26 AM 5:04 PM
Waxing Crescent, 31% visible
METAR KCRW 051154Z 30004KT 10SM OVC035 08/04 A3005 RMK AO2 SLP178 70011 T00780039 10094 20078 51021
Pressure 30.06 in
Visibility 10.0 miles
Clouds Overcast 3500 ft
Windchill 45 °F
Dew Point 44 °F
Humidity 96%
Rainfall 0.02 in
Snow Depth Not available.
7:26 AM 5:04 PM
Waxing Crescent, 31% visible
METAR KCRW 051154Z 30004KT 10SM OVC035 08/04 A3005 RMK AO2 SLP178 70011 T00780039 10094 20078 51021

10-Day Weather Forecast

Almanac

Astronomy

Dec. 05, 2016 Rise Set
Actual Time
Civil Twilight
Nautical Twilight
Astronomical Twilight
Moon
Length of Visible Light
Length of Day
Tomorrow will be .
, % of the Moon is Illuminated

Today's Extremes

State Highs State Lows

Community

WunderPhotos

Upload Photos

1,955,779 photos uploaded!

WunderBlog® & News

Nearby

Air Quality

  Air Quality AQ Index Pollutant
Not available.

Snow Depth

Station Depth Elevation

Earthquake Activity

City Distance Mag. Time & Date
Minimum magnitude displayed is 2.5.

Coastal Water Temperatures

Place Temperature

Stations

Nearby Weather Stations

Station Location Temp. Windchill Dew Point Humidity Wind Precip. Elev Updated Type
                   

Watches & Warnings

There are currently no watches in effect.